Time;durP1;ratioP1;P1;durP2;ratioP2;P2;SDS_P1;SDS_P2;PMS_P1;PMS_P2;Temp;Humidity;BMP_temperature;BMP_pressure;BME280_temperature;BME280_humidity;BME280_pressure;Samples;Min_cycle;Max_cycle;Signal;HPM_P1;HPM_P2
2021/12/12 00:02:27;;;;;;;15.25;8.00;;;;;;;4.99;92.51;98262.70;1761980;79;20963;-81
2021/12/12 00:04:51;;;;;;;17.85;8.60;;;;;;;4.99;92.44;98263.98;1786013;79;21007;-81
2021/12/12 00:07:23;;;;;;;16.02;8.20;;;;;;;5.02;92.29;98259.25;1765717;79;20963;-81
2021/12/12 00:09:55;;;;;;;14.28;6.80;;;;;;;5.01;92.41;98261.39;1745640;81;20984;-81
2021/12/12 00:12:31;;;;;;;14.18;7.10;;;;;;;5.02;92.71;98260.53;1780843;80;21031;-83
2021/12/12 00:14:58;;;;;;;14.28;7.00;;;;;;;5.06;92.43;98259.16;1762667;79;21062;-81
2021/12/12 00:17:27;;;;;;;15.88;7.28;;;;;;;5.05;92.76;98254.87;1765710;80;21007;-82
2021/12/12 00:19:54;;;;;;;12.98;6.85;;;;;;;5.09;92.60;98253.09;1761838;79;21026;-82
2021/12/12 00:22:26;;;;;;;12.30;6.25;;;;;;;5.10;92.80;98252.23;1778613;79;21071;-82
2021/12/12 00:24:54;;;;;;;11.68;6.20;;;;;;;5.13;92.52;98249.18;1763897;79;21007;-81
2021/12/12 00:27:21;;;;;;;13.83;6.72;;;;;;;5.14;92.59;98247.45;1758554;80;21027;-81
2021/12/12 00:29:50;;;;;;;12.80;6.47;;;;;;;5.16;92.55;98245.25;1756620;80;20975;-82
2021/12/12 00:32:19;;;;;;;12.70;6.15;;;;;;;5.24;92.28;98247.70;1744857;82;21039;-82
2021/12/12 00:34:53;;;;;;;13.48;6.08;;;;;;;5.24;92.48;98246.41;1772071;79;21131;-82
2021/12/12 00:37:21;;;;;;;13.93;7.08;;;;;;;5.24;92.57;98246.41;1757803;79;20975;-82
2021/12/12 00:39:53;;;;;;;13.53;6.83;;;;;;;5.29;92.38;98252.34;1770023;81;21059;-81
2021/12/12 00:42:27;;;;;;;13.58;6.33;;;;;;;5.31;92.37;98245.85;1765993;79;20978;-82
2021/12/12 00:44:59;;;;;;;12.15;6.55;;;;;;;5.35;92.16;98248.78;1769963;79;21030;-82
2021/12/12 00:47:26;;;;;;;11.43;5.58;;;;;;;5.38;92.01;98241.86;1771108;80;20974;-82
2021/12/12 00:49:54;;;;;;;12.73;6.37;;;;;;;5.38;92.02;98241.02;1735943;82;20998;-82
2021/12/12 00:52:21;;;;;;;11.20;5.62;;;;;;;5.39;92.09;98231.09;1768905;79;21053;-83
2021/12/12 00:54:50;;;;;;;13.38;6.17;;;;;;;5.41;91.99;98231.08;1800128;79;20978;-81
2021/12/12 00:57:20;;;;;;;10.20;5.62;;;;;;;5.43;92.01;98240.50;1756528;80;21020;-82
2021/12/12 00:59:47;;;;;;;11.53;5.25;;;;;;;5.49;91.70;98232.66;1774982;80;21148;-82
2021/12/12 01:02:22;;;;;;;10.63;5.10;;;;;;;5.53;91.64;98226.56;1758857;79;20997;-83
2021/12/12 01:04:54;;;;;;;9.78;5.00;;;;;;;5.51;91.71;98224.45;1799339;80;21030;-82
2021/12/12 01:07:29;;;;;;;11.97;5.97;;;;;;;5.51;91.74;98227.45;1798195;79;21022;-83
2021/12/12 01:10:00;;;;;;;11.00;4.78;;;;;;;5.52;91.63;98214.53;1799750;79;20966;-83
2021/12/12 01:12:31;;;;;;;10.20;5.40;;;;;;;5.55;91.65;98210.63;1791619;79;21009;-82
2021/12/12 01:15:15;;;;;;;10.13;5.40;;;;;;;5.54;91.73;98205.48;1785635;79;20971;-83
2021/12/12 01:17:46;;;;;;;8.75;4.20;;;;;;;5.59;91.48;98199.81;1803865;79;20996;-82
2021/12/12 01:20:21;;;;;;;9.93;4.85;;;;;;;5.61;91.49;98192.03;1785709;79;20990;-83
2021/12/12 01:22:52;;;;;;;11.30;5.08;;;;;;;5.61;91.62;98189.45;1774190;79;20983;-80
2021/12/12 01:25:24;;;;;;;9.70;5.33;;;;;;;5.62;91.52;98189.88;1802927;79;20968;-82
2021/12/12 01:27:53;;;;;;;11.25;5.15;;;;;;;5.65;91.45;98185.93;1767889;79;21026;-83
2021/12/12 01:30:21;;;;;;;10.25;5.30;;;;;;;5.67;91.53;98188.03;1788927;80;20982;-83
2021/12/12 01:32:51;;;;;;;10.90;4.97;;;;;;;5.70;91.35;98187.98;1795834;79;20979;-82
2021/12/12 01:35:20;;;;;;;9.28;4.67;;;;;;;5.70;91.53;98184.97;1776322;79;21051;-83
2021/12/12 01:40:40;;;;;;;8.78;4.85;;;;;;;5.73;91.39;98179.76;1787020;80;21299;-82
2021/12/12 01:43:20;;;;;;;9.48;4.87;;;;;;;5.80;91.20;98183.50;1805770;79;21054;-82
2021/12/12 01:45:54;;;;;;;8.55;4.58;;;;;;;5.75;91.20;98175.42;1801380;79;21043;-82
2021/12/12 01:48:26;;;;;;;9.75;4.37;;;;;;;5.79;91.06;98172.34;1793538;79;21023;-82
2021/12/12 01:50:58;;;;;;;9.73;4.45;;;;;;;5.78;91.10;98162.44;1786504;79;21073;-81
2021/12/12 01:53:28;;;;;;;9.58;4.47;;;;;;;5.78;91.33;98163.73;1790981;78;21044;-81
2021/12/12 01:56:03;;;;;;;8.75;4.30;;;;;;;5.80;91.30;98155.97;1776077;78;21030;-82
2021/12/12 01:58:32;;;;;;;9.93;4.55;;;;;;;5.80;91.25;98153.84;1776598;79;21036;-83
2021/12/12 02:01:07;;;;;;;11.33;5.33;;;;;;;5.82;91.20;98159.81;1774163;78;20998;-83
2021/12/12 02:03:39;;;;;;;9.75;4.78;;;;;;;5.84;91.19;98147.73;1793971;80;20998;-82
2021/12/12 02:06:09;;;;;;;7.92;4.45;;;;;;;5.81;91.40;98147.78;1773356;79;21070;-82
2021/12/12 02:08:38;;;;;;;8.93;3.90;;;;;;;5.83;91.35;98143.44;1787278;78;21010;-82
2021/12/12 02:11:10;;;;;;;9.40;4.28;;;;;;;5.84;91.20;98138.25;1817124;78;20999;-82
2021/12/12 02:13:42;;;;;;;8.08;3.83;;;;;;;5.83;91.33;98144.73;1800517;79;20998;-83
2021/12/12 02:16:11;;;;;;;8.70;4.60;;;;;;;5.84;91.31;98132.25;1782500;79;21002;-81
2021/12/12 02:18:45;;;;;;;9.00;4.50;;;;;;;5.85;91.43;98132.65;1787721;79;20990;-82
2021/12/12 02:21:26;;;;;;;8.98;4.40;;;;;;;5.90;91.08;98125.67;1793942;78;21226;-81
2021/12/12 02:37:40;;;;;;;10.48;4.25;;;;;;;5.86;91.04;98113.27;1775173;79;21486;-80
2021/12/12 02:40:12;;;;;;;10.75;4.47;;;;;;;5.89;90.90;98114.92;1777385;79;21106;-80
2021/12/12 02:42:40;;;;;;;9.15;4.20;;;;;;;5.91;90.95;98116.62;1777311;79;21009;-81
2021/12/12 02:45:09;;;;;;;7.75;4.03;;;;;;;5.93;90.88;98112.72;1760371;79;21030;-82
2021/12/12 02:47:37;;;;;;;9.35;4.47;;;;;;;5.97;90.77;98111.80;1777566;81;21042;-82
2021/12/12 02:50:15;;;;;;;7.17;3.85;;;;;;;5.94;90.96;98101.50;1763659;79;21013;-82
2021/12/12 02:52:53;;;;;;;7.17;3.85;;;;;;;5.97;90.75;98104.90;1777353;80;20962;-82
2021/12/12 02:55:27;;;;;;;6.05;3.42;;;;;;;6.04;90.74;98092.70;1775145;80;21010;-82
2021/12/12 02:57:56;;;;;;;7.15;3.77;;;;;;;6.04;90.87;98100.89;1767934;79;21054;-84
2021/12/12 03:00:28;;;;;;;7.85;3.80;;;;;;;6.08;90.79;98093.03;1770905;79;21015;-81
2021/12/12 03:02:58;;;;;;;7.15;3.30;;;;;;;6.07;90.53;98091.77;1776472;79;21010;-82
2021/12/12 03:05:28;;;;;;;6.28;3.40;;;;;;;6.09;90.49;98088.30;1752854;80;21006;-82
2021/12/12 03:07:55;;;;;;;7.35;3.55;;;;;;;6.09;90.32;98090.03;1750239;81;20994;-83
2021/12/12 03:10:27;;;;;;;6.67;3.52;;;;;;;6.12;90.53;98095.95;1753666;81;21030;-82
2021/12/12 03:12:55;;;;;;;6.72;3.77;;;;;;;6.13;90.48;98107.14;1776065;79;20979;-82
2021/12/12 03:15:30;;;;;;;7.12;3.75;;;;;;;6.16;90.29;98100.59;1737952;82;21044;-82
2021/12/12 03:18:01;;;;;;;7.42;3.50;;;;;;;6.14;90.28;98091.59;1755451;81;21062;-81
2021/12/12 03:20:36;;;;;;;10.32;4.33;;;;;;;6.18;90.19;98091.92;1785544;79;21032;-82
2021/12/12 03:23:08;;;;;;;8.68;3.80;;;;;;;6.18;90.22;98093.67;1776663;79;20991;-82
2021/12/12 03:25:40;;;;;;;9.55;4.47;;;;;;;6.21;90.20;98091.45;1770352;80;21226;-81
2021/12/12 03:28:10;;;;;;;9.08;3.92;;;;;;;6.20;89.80;98085.45;1727153;81;21260;-82
2021/12/12 03:30:39;;;;;;;9.03;4.00;;;;;;;6.18;89.74;98085.48;1751429;80;21038;-82
2021/12/12 03:33:08;;;;;;;7.17;4.15;;;;;;;6.21;89.65;98082.42;1758441;81;20967;-82
2021/12/12 03:35:35;;;;;;;6.80;3.30;;;;;;;6.20;89.71;98085.90;1734799;81;21057;-81
2021/12/12 03:38:03;;;;;;;5.62;3.30;;;;;;;6.18;89.64;98086.77;1757334;81;21017;-82
2021/12/12 03:40:35;;;;;;;8.40;3.22;;;;;;;6.19;89.42;98090.22;1761604;81;21494;-83
2021/12/12 03:43:06;;;;;;;6.45;2.98;;;;;;;6.17;89.50;98092.83;1770779;80;21010;-82
2021/12/12 03:45:36;;;;;;;6.47;3.65;;;;;;;6.15;89.69;98089.89;1770112;81;21042;-82
2021/12/12 03:48:16;;;;;;;5.95;3.27;;;;;;;6.17;89.79;98085.54;1769464;80;20974;-82
2021/12/12 03:50:47;;;;;;;7.05;3.10;;;;;;;6.17;89.75;98090.25;1730111;83;21046;-82
2021/12/12 03:53:14;;;;;;;6.33;2.98;;;;;;;6.19;89.80;98082.48;1754010;80;20963;-82
2021/12/12 03:55:43;;;;;;;6.47;2.80;;;;;;;6.22;89.84;98080.25;1791205;80;21053;-83
2021/12/12 03:58:12;;;;;;;6.60;3.27;;;;;;;6.26;89.56;98080.59;1731960;82;21211;-83
2021/12/12 04:00:49;;;;;;;5.47;3.25;;;;;;;6.28;89.68;98082.23;1768869;81;20999;-83
2021/12/12 04:03:18;;;;;;;6.25;3.17;;;;;;;6.27;89.50;98076.69;1726963;83;21062;-83
2021/12/12 04:05:53;;;;;;;7.17;3.55;;;;;;;6.33;89.66;98067.50;1765788;80;21026;-82
2021/12/12 04:08:26;;;;;;;5.37;3.30;;;;;;;6.33;89.39;98065.37;1747541;81;20992;-84
2021/12/12 04:10:53;;;;;;;6.58;3.12;;;;;;;6.38;89.54;98054.47;1770747;81;21600;-82
2021/12/12 04:13:20;;;;;;;6.35;3.50;;;;;;;6.37;89.42;98055.38;1749728;81;21418;-82
2021/12/12 04:15:55;;;;;;;5.80;3.02;;;;;;;6.40;89.42;98053.15;1770635;80;21465;-83
2021/12/12 04:18:26;;;;;;;8.30;3.08;;;;;;;6.45;89.17;98051.31;1767770;80;21030;-83
2021/12/12 04:20:54;;;;;;;5.87;2.85;;;;;;;6.44;89.25;98049.15;1782575;80;21542;-82
2021/12/12 04:23:25;;;;;;;5.62;3.10;;;;;;;6.42;88.88;98038.47;1772378;80;21062;-83
2021/12/12 04:25:52;;;;;;;5.53;3.12;;;;;;;6.41;88.61;98036.78;1756036;80;21129;-83
2021/12/12 04:28:19;;;;;;;5.78;2.98;;;;;;;6.46;88.69;98042.22;1767117;81;21000;-81
2021/12/12 04:30:46;;;;;;;7.00;3.60;;;;;;;6.45;88.66;98033.23;1764005;81;21018;-82
2021/12/12 04:33:14;;;;;;;5.50;2.75;;;;;;;6.44;88.58;98037.53;1744597;82;21010;-82
2021/12/12 04:35:41;;;;;;;5.50;2.90;;;;;;;6.41;88.36;98027.75;1763784;79;21045;-81
2021/12/12 04:38:07;;;;;;;5.83;2.77;;;;;;;6.42;88.18;98027.69;1744007;81;21110;-80
2021/12/12 04:40:37;;;;;;;4.72;2.52;;;;;;;6.37;88.42;98026.97;1767945;81;21031;-80
2021/12/12 04:43:04;;;;;;;6.42;2.60;;;;;;;6.39;88.50;98043.27;1768235;81;20936;-81
2021/12/12 04:46:07;;;;;;;4.83;2.58;;;;;;;6.38;88.65;98027.36;1741119;81;21006;-83
2021/12/12 04:51:49;;;;;;;5.62;2.67;;;;;;;6.45;88.71;98037.11;1762365;80;21021;-88
2021/12/12 04:54:33;;;;;;;5.25;2.30;;;;;;;6.48;88.79;98033.14;1752762;81;20984;-83
2021/12/12 04:57:14;;;;;;;5.90;2.55;;;;;;;6.51;88.71;98037.79;1704417;83;21002;-82
2021/12/12 04:59:49;;;;;;;4.97;2.72;;;;;;;6.52;88.69;98030.88;1762368;80;20979;-82
2021/12/12 05:02:34;;;;;;;7.35;3.08;;;;;;;6.54;88.52;98031.23;1770443;80;21029;-82
2021/12/12 05:05:24;;;;;;;5.45;2.60;;;;;;;6.60;88.50;98030.69;1765714;80;20983;-81
2021/12/12 05:08:10;;;;;;;5.35;2.60;;;;;;;6.62;88.54;98031.05;1737624;80;21007;-81
2021/12/12 05:10:48;;;;;;;6.40;3.33;;;;;;;6.63;87.75;98034.50;1785586;80;21033;-82
2021/12/12 05:13:22;;;;;;;12.60;5.33;;;;;;;6.64;87.62;98026.69;1757737;80;21018;-83
2021/12/12 05:15:53;;;;;;;6.65;3.67;;;;;;;6.67;87.55;98029.20;1760985;80;21019;-84
2021/12/12 05:18:28;;;;;;;8.28;5.00;;;;;;;6.64;87.42;98027.98;1760900;80;21111;-82
2021/12/12 05:21:09;;;;;;;9.57;5.07;;;;;;;6.64;87.46;98031.85;1762947;80;21010;-82
2021/12/12 05:23:39;;;;;;;5.65;2.83;;;;;;;6.67;87.26;98028.36;1753577;81;21043;-81
2021/12/12 05:26:19;;;;;;;5.08;2.77;;;;;;;6.63;87.11;98026.30;1733028;80;21078;-80
2021/12/12 05:28:50;;;;;;;6.50;2.80;;;;;;;6.65;87.42;98034.02;1744375;82;21003;-81
2021/12/12 05:31:20;;;;;;;6.10;3.00;;;;;;;6.63;87.34;98033.20;1738400;80;20983;-82
2021/12/12 05:33:53;;;;;;;5.47;2.60;;;;;;;6.69;87.40;98040.80;1738127;80;21039;-81
2021/12/12 05:36:22;;;;;;;6.23;3.37;;;;;;;6.72;87.44;98035.53;1734008;81;21014;-81
2021/12/12 05:38:49;;;;;;;5.03;3.00;;;;;;;6.73;87.40;98039.38;1765994;81;21211;-79
2021/12/12 05:41:20;;;;;;;5.75;2.60;;;;;;;6.77;87.47;98041.44;1741116;82;21049;-80
2021/12/12 05:43:49;;;;;;;5.45;3.10;;;;;;;6.79;87.15;98035.78;1768941;81;21032;-80
2021/12/12 05:46:19;;;;;;;5.83;2.62;;;;;;;6.82;87.40;98042.59;1722750;82;21054;-80
2021/12/12 05:48:47;;;;;;;4.87;2.55;;;;;;;6.83;87.42;98039.98;1743180;81;20990;-80
2021/12/12 05:51:15;;;;;;;6.10;3.25;;;;;;;6.84;87.20;98037.78;1748915;82;21037;-79
2021/12/12 05:53:41;;;;;;;5.60;2.77;;;;;;;6.86;87.23;98039.88;1770761;81;20955;-81
2021/12/12 05:56:09;;;;;;;5.45;2.98;;;;;;;6.89;87.53;98049.30;1773710;81;21006;-81
2021/12/12 05:58:36;;;;;;;6.97;3.42;;;;;;;6.90;87.56;98043.23;1723136;81;21003;-80
2021/12/12 06:01:08;;;;;;;8.00;3.47;;;;;;;6.91;87.34;98050.11;1723922;82;20991;-81
2021/12/12 06:03:39;;;;;;;9.48;3.70;;;;;;;6.93;87.04;98058.66;1751031;82;21006;-82
2021/12/12 06:06:11;;;;;;;7.10;3.90;;;;;;;6.94;87.21;98057.34;1753695;80;21154;-81
2021/12/12 06:08:41;;;;;;;14.18;5.55;;;;;;;6.95;87.14;98067.22;1730869;81;20969;-82
2021/12/12 06:11:08;;;;;;;9.98;4.70;;;;;;;6.94;87.04;98061.63;1728900;81;20991;-81
2021/12/12 06:13:38;;;;;;;10.08;4.65;;;;;;;6.93;87.05;98067.25;1768726;81;21014;-81
2021/12/12 06:16:08;;;;;;;11.63;5.30;;;;;;;6.92;87.43;98053.08;1727882;81;21018;-81
2021/12/12 06:18:36;;;;;;;11.20;5.87;;;;;;;6.94;86.91;98060.34;1779461;80;21017;-81
2021/12/12 06:21:04;;;;;;;12.23;6.17;;;;;;;6.91;86.96;98067.74;1777710;80;21049;-81
2021/12/12 06:23:31;;;;;;;10.65;4.92;;;;;;;6.89;87.22;98064.35;1773920;81;20963;-82
2021/12/12 06:25:58;;;;;;;12.05;5.83;;;;;;;6.90;87.13;98064.77;1761598;81;21118;-81
2021/12/12 06:28:29;;;;;;;9.60;4.45;;;;;;;6.89;87.27;98063.52;1765617;81;20994;-81
2021/12/12 06:30:57;;;;;;;8.03;4.12;;;;;;;6.89;87.54;98063.06;1756668;80;21030;-83
2021/12/12 06:33:24;;;;;;;7.83;4.20;;;;;;;6.90;87.59;98068.65;1764332;81;21052;-81
2021/12/12 06:35:52;;;;;;;10.85;6.05;;;;;;;6.95;87.75;98068.52;1725827;82;21068;-81
2021/12/12 06:38:21;;;;;;;7.72;3.80;;;;;;;6.95;87.85;98070.64;1773739;80;21038;-81
2021/12/12 06:40:48;;;;;;;6.65;3.90;;;;;;;7.00;87.96;98069.67;1754884;81;21011;-80
2021/12/12 06:43:18;;;;;;;5.53;3.22;;;;;;;7.02;88.04;98085.98;1753329;80;21019;-80
2021/12/12 06:45:47;;;;;;;6.42;3.65;;;;;;;7.04;88.21;98084.20;1767034;80;21078;-80
2021/12/12 06:48:15;;;;;;;6.62;3.77;;;;;;;7.07;88.24;98082.39;1758568;81;21033;-79
2021/12/12 06:50:47;;;;;;;6.37;3.90;;;;;;;7.10;88.37;98090.50;1766333;80;21029;-80
2021/12/12 06:53:18;;;;;;;7.95;3.90;;;;;;;7.13;88.35;98087.84;1766774;80;21508;-80
2021/12/12 06:55:46;;;;;;;8.55;4.25;;;;;;;7.15;88.41;98090.78;1764334;80;21030;-81
2021/12/12 06:58:15;;;;;;;9.78;4.30;;;;;;;7.18;88.31;98084.67;1760382;80;21018;-80
2021/12/12 07:00:45;;;;;;;6.40;3.87;;;;;;;7.16;88.36;98092.48;1765596;80;21057;-80
2021/12/12 07:03:16;;;;;;;6.40;3.90;;;;;;;7.15;88.47;98093.81;1771804;80;21074;-79
2021/12/12 07:05:42;;;;;;;8.58;4.75;;;;;;;7.16;88.53;98094.20;1765008;80;20994;-79
2021/12/12 07:08:10;;;;;;;8.03;3.92;;;;;;;7.14;88.76;98088.23;1762635;80;21066;-79
2021/12/12 07:10:38;;;;;;;10.68;5.10;;;;;;;7.14;88.50;98093.40;1764286;81;21070;-79
2021/12/12 07:13:06;;;;;;;7.78;4.03;;;;;;;7.12;88.48;98092.59;1762314;80;20993;-80
2021/12/12 07:15:38;;;;;;;14.98;8.18;;;;;;;7.07;88.97;98089.30;1763002;80;21010;-80
2021/12/12 07:18:12;;;;;;;6.05;3.22;;;;;;;7.06;88.89;98092.77;1761610;80;21029;-79
2021/12/12 07:20:41;;;;;;;9.38;4.75;;;;;;;7.03;89.05;98102.75;1730327;81;21025;-79
2021/12/12 07:23:11;;;;;;;10.93;5.12;;;;;;;7.03;89.12;98107.08;1737820;81;21035;-79
2021/12/12 07:25:41;;;;;;;12.18;5.78;;;;;;;7.01;89.11;98109.70;1762593;80;21090;-79
2021/12/12 07:28:08;;;;;;;8.48;3.98;;;;;;;7.00;89.73;98120.06;1769940;80;21061;-79
2021/12/12 07:30:35;;;;;;;8.75;3.75;;;;;;;7.01;89.46;98125.20;1766239;80;21126;-80
2021/12/12 07:33:04;;;;;;;9.95;3.80;;;;;;;6.96;89.93;98127.05;1759311;80;21010;-79
2021/12/12 07:35:42;;;;;;;13.35;6.22;;;;;;;6.96;90.32;98134.80;1766540;80;21017;-80
2021/12/12 07:38:13;;;;;;;11.90;5.17;;;;;;;7.00;89.79;98129.11;1758236;80;21539;-80
2021/12/12 07:40:41;;;;;;;5.80;2.85;;;;;;;7.00;90.19;98129.95;1735368;80;21627;-79
2021/12/12 07:43:08;;;;;;;6.08;3.17;;;;;;;7.04;90.01;98130.27;1767280;80;21119;-79
2021/12/12 07:45:35;;;;;;;7.80;4.33;;;;;;;7.07;90.03;98131.95;1762558;80;21005;-80
2021/12/12 07:48:03;;;;;;;7.65;3.20;;;;;;;7.10;90.04;98140.48;1768831;80;21502;-79
2021/12/12 07:50:30;;;;;;;10.28;3.50;;;;;;;7.10;90.18;98146.06;1726020;81;21010;-79
2021/12/12 07:52:57;;;;;;;7.05;3.42;;;;;;;7.12;90.11;98148.16;1759632;80;21002;-79
2021/12/12 07:55:26;;;;;;;8.80;3.27;;;;;;;7.12;90.29;98155.50;1764186;80;20980;-79
2021/12/12 07:57:53;;;;;;;4.70;3.00;;;;;;;7.15;90.23;98152.81;1769871;80;21042;-80
2021/12/12 08:00:24;;;;;;;8.43;2.70;;;;;;;7.13;90.72;98157.18;1742915;80;20982;-80
2021/12/12 08:02:54;;;;;;;5.70;2.83;;;;;;;7.14;90.79;98165.77;1758210;80;21485;-80
2021/12/12 08:05:28;;;;;;;6.97;4.20;;;;;;;7.16;90.91;98171.75;1768246;80;21454;-79
2021/12/12 08:07:52;;;;;;;9.25;4.00;;;;;;;7.21;90.79;98169.06;1767944;81;21018;-80
2021/12/12 08:10:18;;;;;;;11.18;4.65;;;;;;;7.22;90.81;98168.16;1781135;80;21004;-79
2021/12/12 08:12:46;;;;;;;5.62;3.20;;;;;;;7.19;91.02;98165.22;1763643;80;20991;-80
2021/12/12 08:15:13;;;;;;;6.87;3.65;;;;;;;7.22;90.75;98173.33;1738862;81;21061;-80
2021/12/12 08:17:42;;;;;;;9.45;4.12;;;;;;;7.21;91.10;98173.78;1756362;79;21109;-80
2021/12/12 08:20:13;;;;;;;6.87;3.37;;;;;;;7.24;91.16;98178.89;1747580;80;21126;-79
2021/12/12 08:22:42;;;;;;;6.65;3.45;;;;;;;7.25;91.40;98181.02;1738127;81;21066;-80
2021/12/12 08:25:12;;;;;;;5.95;2.52;;;;;;;7.27;91.27;98190.42;1778645;79;21635;-80
2021/12/12 08:27:40;;;;;;;6.12;3.35;;;;;;;7.26;91.37;98197.80;1756236;80;21026;-79
2021/12/12 08:30:11;;;;;;;11.57;3.90;;;;;;;7.30;91.33;98193.36;1766397;80;21034;-80
2021/12/12 08:32:38;;;;;;;7.17;3.47;;;;;;;7.31;91.21;98200.25;1759764;80;21014;-79
2021/12/12 08:35:07;;;;;;;6.33;3.20;;;;;;;7.30;91.37;98207.16;1780657;80;21019;-80
2021/12/12 08:37:34;;;;;;;12.70;4.03;;;;;;;7.35;91.15;98205.73;1781290;80;21054;-81
2021/12/12 08:40:04;;;;;;;8.80;3.80;;;;;;;7.36;91.19;98203.13;1769111;80;21506;-79
2021/12/12 08:42:31;;;;;;;6.00;3.33;;;;;;;7.34;91.27;98207.48;1772023;80;21021;-79
2021/12/12 08:44:59;;;;;;;12.75;4.72;;;;;;;7.37;90.63;98213.85;1777654;80;21404;-79
2021/12/12 08:47:27;;;;;;;11.30;4.30;;;;;;;7.34;91.56;98214.38;1745044;80;21071;-79
2021/12/12 08:49:54;;;;;;;7.20;3.65;;;;;;;7.39;90.79;98210.39;1758127;80;21018;-79
2021/12/12 08:52:32;;;;;;;9.18;4.42;;;;;;;7.36;91.22;98209.59;1775508;80;21026;-81
2021/12/12 08:55:00;;;;;;;9.85;4.58;;;;;;;7.39;90.68;98206.06;1762762;80;21558;-80
2021/12/12 08:57:46;;;;;;;11.97;4.17;;;;;;;7.37;90.80;98197.05;1768490;80;20951;-80
2021/12/12 09:00:15;;;;;;;8.50;3.80;;;;;;;7.38;91.26;98205.64;1765310;80;21078;-80
2021/12/12 09:02:42;;;;;;;9.90;4.25;;;;;;;7.41;91.16;98206.87;1744918;80;21050;-81
2021/12/12 09:05:17;;;;;;;8.05;3.98;;;;;;;7.41;91.18;98207.32;1767544;80;21068;-79
2021/12/12 09:07:49;;;;;;;6.97;3.33;;;;;;;7.45;91.38;98228.33;1782485;80;21480;-80
2021/12/12 09:10:29;;;;;;;12.40;5.03;;;;;;;7.49;90.77;98233.37;1766813;80;21051;-80
2021/12/12 09:13:16;;;;;;;10.28;4.25;;;;;;;7.54;90.89;98242.30;1739527;80;21034;-81
2021/12/12 09:15:48;;;;;;;10.32;4.37;;;;;;;7.56;91.02;98232.33;1759221;80;20957;-80
2021/12/12 09:18:24;;;;;;;11.33;5.40;;;;;;;7.61;91.24;98230.91;1766749;80;21109;-81
2021/12/12 09:21:23;;;;;;;13.68;6.15;;;;;;;7.68;90.87;98232.45;1769335;80;21589;-80
2021/12/12 09:23:51;;;;;;;12.88;5.70;;;;;;;7.68;91.22;98235.04;1719867;83;20993;-81
2021/12/12 09:26:23;;;;;;;16.17;6.58;;;;;;;7.76;91.20;98236.97;1753819;80;21074;-79
2021/12/12 09:29:04;;;;;;;11.53;5.70;;;;;;;7.84;91.16;98229.42;1775043;79;21081;-80
2021/12/12 09:31:38;;;;;;;12.70;5.78;;;;;;;7.89;91.04;98223.68;1768098;80;20983;-80
2021/12/12 09:34:10;;;;;;;;;;;;;;;7.95;90.86;98226.94;1784986;80;20972;-80
2021/12/12 09:36:54;;;;;;;11.78;5.12;;;;;;;8.01;90.85;98221.19;1763982;80;20118;-81
2021/12/12 09:39:29;;;;;;;11.55;5.42;;;;;;;8.06;90.70;98227.09;1765222;80;21020;-79
2021/12/12 09:42:26;;;;;;;17.82;5.22;;;;;;;8.14;90.58;98229.02;1763024;80;21002;-80
2021/12/12 09:45:36;;;;;;;14.85;5.42;;;;;;;8.19;90.50;98228.88;1729476;81;21072;-80
2021/12/12 09:51:50;;;;;;;11.60;4.15;;;;;;;8.27;89.79;98227.73;1689671;82;21047;-83
2021/12/12 09:54:37;;;;;;;8.63;4.53;;;;;;;8.28;89.88;98246.74;1753097;80;21006;-80
2021/12/12 09:57:35;;;;;;;9.70;4.17;;;;;;;8.32;89.94;98240.58;1781854;80;21038;-80
2021/12/12 10:00:13;;;;;;;9.55;4.70;;;;;;;8.38;89.56;98238.25;1735857;81;21002;-80
2021/12/12 10:02:54;;;;;;;11.05;3.92;;;;;;;8.44;89.80;98240.69;1747219;81;21012;-81
2021/12/12 10:05:50;;;;;;;8.20;4.65;;;;;;;8.50;89.80;98245.23;1768216;80;21036;-83
2021/12/12 10:08:55;;;;;;;10.18;4.40;;;;;;;8.54;89.23;98251.17;1756847;79;21059;-86
2021/12/12 10:12:02;;;;;;;7.83;4.30;;;;;;;8.62;88.97;98250.94;1764898;79;20959;-79
2021/12/12 10:14:49;;;;;;;8.15;3.80;;;;;;;8.69;88.51;98252.43;1767750;79;21036;-79
2021/12/12 10:17:41;;;;;;;6.55;3.90;;;;;;;8.69;87.87;98264.09;1786021;79;21017;-80
2021/12/12 10:20:15;;;;;;;6.65;3.67;;;;;;;8.73;88.17;98257.91;1773218;80;21040;-81
2021/12/12 10:23:10;;;;;;;6.47;3.67;;;;;;;8.73;87.70;98261.38;1770016;79;20974;-80
2021/12/12 10:25:48;;;;;;;7.47;3.80;;;;;;;8.75;87.42;98269.08;1734882;81;21130;-80
2021/12/12 10:28:43;;;;;;;7.80;3.37;;;;;;;8.79;87.33;98273.27;1760740;81;21164;-79
2021/12/12 10:31:27;;;;;;;6.53;2.83;;;;;;;8.82;87.34;98278.83;1737457;81;21058;-79
2021/12/12 10:34:05;;;;;;;5.87;3.37;;;;;;;8.87;87.48;98286.87;1732067;81;21153;-80
2021/12/12 10:36:49;;;;;;;7.92;3.37;;;;;;;8.92;87.79;98278.48;1744453;81;21033;-81
2021/12/12 10:39:18;;;;;;;;;;;;;;;9.01;87.77;98281.22;1750528;81;21087;-80
2021/12/12 10:41:50;;;;;;;6.33;3.40;;;;;;;9.05;87.06;98281.55;1766315;81;20137;-81
2021/12/12 10:44:28;;;;;;;8.30;3.70;;;;;;;9.11;87.41;98294.31;1769322;80;21022;-80
2021/12/12 10:47:18;;;;;;;7.15;3.95;;;;;;;9.21;87.55;98293.58;1753386;81;21018;-81
2021/12/12 10:50:17;;;;;;;8.75;3.92;;;;;;;9.34;87.54;98299.20;1768934;81;21002;-79
2021/12/12 10:52:52;;;;;;;7.92;3.70;;;;;;;9.36;87.55;98302.13;1763151;80;21009;-81
2021/12/12 10:55:30;;;;;;;9.80;4.00;;;;;;;9.48;87.66;98322.94;1759889;80;21041;-80
2021/12/12 10:58:05;;;;;;;10.00;4.85;;;;;;;9.53;86.62;98304.64;1756613;80;21053;-80
2021/12/12 11:00:39;;;;;;;9.30;4.85;;;;;;;9.57;86.32;98310.13;1750574;81;21023;-82
2021/12/12 11:03:23;;;;;;;9.50;4.37;;;;;;;9.63;86.53;98310.34;1755022;81;21010;-82
2021/12/12 11:06:07;;;;;;;13.08;4.90;;;;;;;9.75;85.40;98307.36;1729029;82;20999;-81
2021/12/12 11:08:57;;;;;;;7.62;3.60;;;;;;;9.83;85.02;98301.87;1755157;82;21031;-81
2021/12/12 11:11:38;;;;;;;9.53;4.12;;;;;;;10.01;84.74;98306.44;1756231;80;21501;-81
2021/12/12 11:14:25;;;;;;;8.40;4.37;;;;;;;10.19;84.98;98306.70;1798057;80;20988;-81
2021/12/12 11:17:00;;;;;;;5.60;2.75;;;;;;;10.33;84.31;98305.77;1756437;81;21509;-81
2021/12/12 11:19:44;;;;;;;6.83;3.12;;;;;;;10.45;82.88;98309.20;1789107;80;21016;-81
2021/12/12 11:22:19;;;;;;;10.50;3.80;;;;;;;10.45;83.22;98312.27;1779795;80;21083;-80
2021/12/12 11:24:56;;;;;;;7.03;2.87;;;;;;;10.46;82.69;98318.68;1769117;80;21023;-81
2021/12/12 11:27:34;;;;;;;6.62;3.02;;;;;;;10.51;82.88;98325.03;1757137;80;21078;-82
2021/12/12 11:30:12;;;;;;;5.95;3.50;;;;;;;10.60;82.66;98339.42;1769857;80;21053;-80
2021/12/12 11:32:39;;;;;;;5.97;2.98;;;;;;;10.64;83.11;98342.30;1759787;80;20995;-81
2021/12/12 11:35:10;;;;;;;6.58;3.37;;;;;;;10.61;82.21;98350.23;1768890;80;21127;-81
2021/12/12 11:37:44;;;;;;;5.80;2.80;;;;;;;10.63;83.06;98344.52;1762120;80;21027;-81
2021/12/12 11:40:31;;;;;;;8.28;3.58;;;;;;;10.57;80.90;98351.25;1764211;80;21010;-82
2021/12/12 11:43:27;;;;;;;5.50;2.92;;;;;;;10.53;82.03;98359.61;1760869;81;21022;-81
2021/12/12 11:46:07;;;;;;;7.78;2.90;;;;;;;10.39;80.21;98358.80;1762893;80;20958;-81
2021/12/12 11:49:14;;;;;;;6.22;2.87;;;;;;;10.32;81.38;98363.81;1791681;80;21039;-82
2021/12/12 11:52:01;;;;;;;5.67;2.70;;;;;;;10.19;81.28;98358.64;1788464;80;21031;-81
2021/12/12 11:54:42;;;;;;;6.65;2.85;;;;;;;10.10;80.76;98364.99;1749200;81;21022;-81
2021/12/12 11:57:31;;;;;;;7.20;3.00;;;;;;;10.06;81.61;98366.84;1774687;80;21066;-83
2021/12/12 12:00:21;;;;;;;5.03;3.00;;;;;;;10.08;82.21;98372.83;1760660;80;21089;-81
2021/12/12 12:03:27;;;;;;;8.20;4.00;;;;;;;10.12;82.11;98376.17;1720608;82;21039;-80
2021/12/12 12:06:22;;;;;;;9.25;3.83;;;;;;;10.20;82.00;98370.72;1752249;81;21016;-81
2021/12/12 12:09:45;;;;;;;14.83;5.97;;;;;;;10.27;82.33;98368.31;1779296;80;21042;-80
2021/12/12 12:12:38;;;;;;;10.08;4.83;;;;;;;10.51;82.37;98357.52;1765351;81;21075;-81
2021/12/12 12:15:27;;;;;;;5.97;2.95;;;;;;;10.80;82.46;98368.11;1715584;81;21018;-81
2021/12/12 12:18:20;;;;;;;7.58;3.20;;;;;;;11.17;80.67;98359.38;1790017;80;21601;-82
2021/12/12 12:21:32;;;;;;;5.90;3.33;;;;;;;11.33;78.38;98363.05;1763556;81;21009;-81
2021/12/12 12:24:20;;;;;;;6.30;2.92;;;;;;;11.41;80.33;98363.59;1766722;80;20998;-82
2021/12/12 12:27:03;;;;;;;9.53;3.87;;;;;;;11.52;79.30;98365.78;1731581;81;21582;-82
2021/12/12 12:29:33;;;;;;;12.43;3.98;;;;;;;11.56;79.08;98362.14;1777408;79;21018;-81
2021/12/12 12:32:39;;;;;;;7.67;4.00;;;;;;;11.45;78.33;98372.13;1765033;79;21077;-82
2021/12/12 12:35:53;;;;;;;10.25;4.72;;;;;;;11.42;78.38;98383.52;1768943;79;21502;-81
2021/12/12 12:39:06;;;;;;;9.78;4.40;;;;;;;11.44;78.56;98383.00;1797475;79;21041;-81